Modena, NY (12548)

4:08 PM EDT on August 29, 2015 (GMT -0400)
Highgait Farm | | Change Station
CLOSE
Current Station
Personal Weather Station
Location: Clintondale, NY
Elevation: 715 ft
Nearby Weather Stations

Elev 715 ft 41.67 °N, 74.06 °W | Updated 47 seconds ago

Partly Cloudy
Partly Cloudy
84.2 °F
Feels Like 84 °F
N
2.2
Wind Variable Wind from SSE

Today
High -- | Low -- °F
--% Chance of Precip.
Yesterday
High -- | Low -- °F
Precip. -- in
6:19 AM 7:35 PM
Full, 100% visible
Pressure 30.13 in
Visibility 20.0 miles
Clouds Scattered Clouds 6000 ft
Heat Index 84 °F
Dew Point 60 °F
Humidity 44%
Rainfall 0.00 in
Snow Depth Not available.
UV 4 out of 12
Pollen 9.30 out of 12
Air Quality Not available.
Flu Activity Not available.
METAR KSWF 291945Z 00000KT 20SM SCT060 27/15 A3013
Pressure 30.13 in
Visibility 20.0 miles
Clouds Scattered Clouds 6000 ft
Heat Index 84 °F
Dew Point 60 °F
Humidity 44%
Rainfall 0.00 in
Snow Depth Not available.
UV 4 out of 12
Pollen 9.30 out of 12
Air Quality Not available.
Flu Activity Not available.
METAR KSWF 291945Z 00000KT 20SM SCT060 27/15 A3013

10-Day Weather Forecast

×

Almanac

Astronomy

Aug. 29, 2015 Rise Set
Actual Time
Civil Twilight
Nautical Twilight
Astronomical Twilight
Moon
Length of Visible Light
Length of Day
Tomorrow will be .
, % of the Moon is Illuminated

Today's Extremes

State Highs State Lows

Community

WunderPhotos

Upload Photos

1,850,793 photos uploaded!

WunderBlogs® & News

Nearby

Air Quality

  Air Quality AQ Index Pollutant
Not available.

Snow Depth

Station Depth Elevation

Earthquake Activity

City Distance Mag. Time & Date
Minimum magnitude displayed is 2.5.

Coastal Water Temperatures

Place Temperature

Stations

Nearby Weather Stations

Station Location Temp. Windchill Dew Point Humidity Wind Precip. Elev Updated Type